Time;durP1;ratioP1;P1;durP2;ratioP2;P2;SDS_P1;SDS_P2;PMS_P1;PMS_P2;Temp;Humidity;BMP_temperature;BMP_pressure;BME280_temperature;BME280_humidity;BME280_pressure;Samples;Min_cycle;Max_cycle;Signal;HPM_P1;HPM_P2
2023/02/04 00:02:20;;;;;;;;;;;;;;;;;;6288403;22;19937;-86
2023/02/04 00:04:48;;;;;;;;;;;;;;;;;;6284978;22;19895;-86
2023/02/04 00:09:58;;;;;;;;;;;;;;;;;;6296164;22;19911;-85
2023/02/04 00:12:29;;;;;;;;;;;;;;;;;;6279969;22;19959;-85
2023/02/04 00:14:55;;;;;;;;;;;;;;;;;;6256588;22;19911;-86
2023/02/04 00:20:10;;;;;;;;;;;;;;;;;;6339379;22;19919;-84
2023/02/04 00:22:43;;;;;;;;;;;;;;;;;;6281053;22;20236;-84
2023/02/04 00:25:19;;;;;;;;;;;;;;;;;;6301072;22;19907;-85
2023/02/04 00:27:48;;;;;;;;;;;;;;;;;;6326539;22;19922;-84
2023/02/04 00:30:29;;;;;;;;;;;;;;;;;;6328552;22;19911;-84
2023/02/04 00:32:59;;;;;;;;;;;;;;;;;;6301414;22;19903;-84
2023/02/04 00:38:06;;;;;;;;;;;;;;;;;;6297697;22;19922;-82
2023/02/04 00:46:11;;;;;;;;;;;;;;;;;;6303947;22;19915;-86
2023/02/04 00:48:42;;;;;;;;;;;;;;;;;;6279837;22;19895;-86
2023/02/04 00:51:08;;;;;;;;;;;;;;;;;;6212865;22;19922;-81
2023/02/04 00:53:40;;;;;;;;;;;;;;;;;;6283328;22;19908;-83
2023/02/04 00:56:06;;;;;;;;;;;;;;;;;;6267960;22;19907;-86
2023/02/04 00:58:34;;;;;;;;;;;;;;;;;;6274081;22;19903;-85
2023/02/04 01:01:08;;;;;;;;;;;;;;;;;;6262785;22;19919;-85
2023/02/04 01:06:18;;;;;;;;;;;;;;;;;;6289346;22;19904;-80
2023/02/04 01:14:32;;;;;;;;;;;;;;;;;;6245133;22;19927;-83
2023/02/04 01:16:58;;;;;;;;;;;;;;;;;;6218847;22;19896;-84
2023/02/04 01:22:22;;;;;;;;;;;;;;;;;;6306204;22;19927;-85
2023/02/04 01:27:35;;;;;;;;;;;;;;;;;;6291693;22;20619;-81
2023/02/04 01:32:49;;;;;;;;;;;;;;;;;;6318338;22;20344;-84
2023/02/04 01:35:28;;;;;;;;;;;;;;;;;;6287876;22;19911;-84
2023/02/04 01:37:58;;;;;;;;;;;;;;;;;;6309864;22;19902;-84
2023/02/04 01:40:26;;;;;;;;;;;;;;;;;;6336852;22;19927;-84
2023/02/04 01:42:54;;;;;;;;;;;;;;;;;;6332663;22;19909;-84
2023/02/04 01:58:38;;;;;;;;;;;;;;;;;;6280082;22;19931;-82
2023/02/04 02:01:04;;;;;;;;;;;;;;;;;;6256143;22;19903;-85
2023/02/04 02:03:31;;;;;;;;;;;;;;;;;;6205479;23;19904;-79
2023/02/04 02:06:16;;;;;;;;;;;;;;;;;;;;;
2023/02/04 02:08:51;;;;;;;;;;;;;;;;;;6305767;22;19903;-85
2023/02/04 02:14:17;;;;;;;;;;;;;;;;;;6292530;22;19919;-81
2023/02/04 02:16:49;;;;;;;;;;;;;;;;;;6274076;22;19926;-80
2023/02/04 02:19:19;;;;;;;;;;;;;;;;;;6251209;22;19918;-84
2023/02/04 02:21:46;;;;;;;;;;;;;;;;;;6255074;22;19946;-81
2023/02/04 02:24:19;;;;;;;;;;;;;;;;;;6287872;22;19898;-86
2023/02/04 02:26:49;;;;;;;;;;;;;;;;;;6220949;22;19903;-80
2023/02/04 02:29:15;;;;;;;;;;;;;;;;;;6268990;22;21253;-79
2023/02/04 02:31:49;;;;;;;;;;;;;;;;;;6250726;22;19911;-84
2023/02/04 02:34:15;;;;;;;;;;;;;;;;;;6282466;22;19926;-86
2023/02/04 02:36:50;;;;;;;;;;;;;;;;;;6277002;22;19942;-83
2023/02/04 02:39:18;;;;;;;;;;;;;;;;;;6281234;22;19904;-83
2023/02/04 02:41:46;;;;;;;;;;;;;;;;;;6256853;22;19896;-84
2023/02/04 02:44:11;;;;;;;;;;;;;;;;;;6286067;22;19904;-84
2023/02/04 02:52:06;;;;;;;;;;;;;;;;;;6300396;22;19923;-85
2023/02/04 02:55:01;;;;;;;;;;;;;;;;;;6245499;22;19930;-85
2023/02/04 03:11:22;;;;;;;;;;;;;;;;;;6281700;22;19936;-81
2023/02/04 03:21:58;;;;;;;;;;;;;;;;;;6289793;22;19903;-85
2023/02/04 03:29:46;;;;;;;;;;;;;;;;;;6286477;22;19923;-84
2023/02/04 03:37:41;;;;;;;;;;;;;;;;;;6286873;22;19919;-81
2023/02/04 03:40:22;;;;;;;;;;;;;;;;;;6224129;22;19962;-86
2023/02/04 03:42:53;;;;;;;;;;;;;;;;;;6248891;22;19911;-86
2023/02/04 03:45:28;;;;;;;;;;;;;;;;;;6262812;22;19963;-87
2023/02/04 03:47:59;;;;;;;;;;;;;;;;;;6251537;22;19922;-86
2023/02/04 03:53:33;;;;;;;;;;;;;;;;;;6271200;22;19927;-86
2023/02/04 03:56:00;;;;;;;;;;;;;;;;;;6272400;23;19892;-85
2023/02/04 04:01:11;;;;;;;;;;;;;;;;;;6278506;22;19926;-80
2023/02/04 04:15:00;;;;;;;;;;;;;;;;;;6284538;22;19910;-81
2023/02/04 04:17:28;;;;;;;;;;;;;;;;;;6287211;22;19918;-85
2023/02/04 04:25:17;;;;;;;;;;;;;;;;;;6303938;22;19919;-86
2023/02/04 04:27:45;;;;;;;;;;;;;;;;;;6228182;22;19919;-83
2023/02/04 04:32:57;;;;;;;;;;;;;;;;;;6301947;22;19923;-84
2023/02/04 04:40:46;;;;;;;;;;;;;;;;;;6300688;22;19955;-85
2023/02/04 04:43:15;;;;;;;;;;;;;;;;;;6302775;22;19938;-85
2023/02/04 04:45:53;;;;;;;;;;;;;;;;;;6252308;22;19919;-85
2023/02/04 04:48:20;;;;;;;;;;;;;;;;;;6254283;22;19975;-85
2023/02/04 04:50:46;;;;;;;;;;;;;;;;;;6305248;22;19923;-87
2023/02/04 04:53:15;;;;;;;;;;;;;;;;;;6279205;22;19892;-86
2023/02/04 04:55:41;;;;;;;;;;;;;;;;;;6304521;22;19896;-86
2023/02/04 04:58:06;;;;;;;;;;;;;;;;;;6304759;22;19898;-86
2023/02/04 05:00:32;;;;;;;;;;;;;;;;;;6278607;22;19954;-86
2023/02/04 05:05:40;;;;;;;;;;;;;;;;;;6284609;22;19935;-81
2023/02/04 05:08:18;;;;;;;;;;;;;;;;;;6255145;22;19903;-81
2023/02/04 05:16:17;;;;;;;;;;;;;;;;;;6288774;22;19942;-81
2023/02/04 05:18:47;;;;;;;;;;;;;;;;;;6233165;22;19898;-85
2023/02/04 05:21:15;;;;;;;;;;;;;;;;;;6247080;22;20042;-80
2023/02/04 05:23:42;;;;;;;;;;;;;;;;;;6258018;22;19917;-80
2023/02/04 05:34:15;;;;;;;;;;;;;;;;;;6297278;22;19911;-85
2023/02/04 05:36:53;;;;;;;;;;;;;;;;;;6220376;23;19904;-83
2023/02/04 05:39:41;;;;;;;;;;;;;;;;;;6231317;23;19906;-86
2023/02/04 05:42:30;;;;;;;;;;;;;;;;;;6255975;22;19891;-86
2023/02/04 05:45:13;;;;;;;;;;;;;;;;;;6208709;22;19919;-84
2023/02/04 05:47:48;;;;;;;;;;;;;;;;;;6238892;22;19903;-85
2023/02/04 05:50:18;;;;;;;;;;;;;;;;;;6241382;22;19967;-82
2023/02/04 05:52:44;;;;;;;;;;;;;;;;;;6224690;22;19947;-85
2023/02/04 06:00:52;;;;;;;;;;;;;;;;;;6269590;22;19919;-84
2023/02/04 06:11:19;;;;;;;;;;;;;;;;;;6308435;22;19904;-83
2023/02/04 06:19:02;;;;;;;;;;;;;;;;;;6277877;23;19926;-79
2023/02/04 06:21:28;;;;;;;;;;;;;;;;;;6237981;22;19903;-79
2023/02/04 06:26:29;;;;;;;;;;;;;;;;;;6324529;22;19918;-84
2023/02/04 06:34:20;;;;;;;;;;;;;;;;;;6334120;22;19923;-84
2023/02/04 06:41:59;;;;;;;;;;;;;;;;;;6280566;22;19903;-84
2023/02/04 06:47:02;;;;;;;;;;;;;;;;;;6336828;22;19951;-79
2023/02/04 06:49:29;;;;;;;;;;;;;;;;;;6263773;22;19904;-84
2023/02/04 06:52:02;;;;;;;;;;;;;;;;;;6226385;22;19896;-85
2023/02/04 06:54:31;;;;;;;;;;;;;;;;;;6239413;22;19904;-79
2023/02/04 06:57:05;;;;;;;;;;;;;;;;;;6230763;22;19934;-82
2023/02/04 06:59:36;;;;;;;;;;;;;;;;;;6328174;22;19919;-83
2023/02/04 07:07:29;;;;;;;;;;;;;;;;;;6335477;22;19903;-84
2023/02/04 07:12:39;;;;;;;;;;;;;;;;;;6322526;22;19951;-85
2023/02/04 07:15:17;;;;;;;;;;;;;;;;;;6284027;22;19911;-82
2023/02/04 07:20:23;;;;;;;;;;;;;;;;;;6337748;22;19926;-86
2023/02/04 07:28:20;;;;;;;;;;;;;;;;;;6330139;22;19923;-85
2023/02/04 07:30:46;;;;;;;;;;;;;;;;;;6253816;22;19955;-81
2023/02/04 07:41:14;;;;;;;;;;;;;;;;;;6303929;22;19907;-81
2023/02/04 07:46:29;;;;;;;;;;;;;;;;;;6314805;22;19922;-78
2023/02/04 07:54:18;;;;;;;;;;;;;;;;;;6326407;22;19923;-81
2023/02/04 07:59:41;;;;;;;;;;;;;;;;;;6254439;22;19895;-85
2023/02/04 08:02:43;;;;;;;;;;;;;;;;;;6257048;22;19919;-85
2023/02/04 08:05:31;;;;;;;;;;;;;;;;;;6252948;22;19895;-86
2023/02/04 08:08:02;;;;;;;;;;;;;;;;;;6248920;22;19903;-87
2023/02/04 08:10:41;;;;;;;;;;;;;;;;;;6249537;22;19903;-87
2023/02/04 08:13:16;;;;;;;;;;;;;;;;;;6226547;22;19931;-86
2023/02/04 08:15:49;;;;;;;;;;;;;;;;;;6258863;22;19919;-86
2023/02/04 08:18:15;;;;;;;;;;;;;;;;;;6306115;22;19895;-87
2023/02/04 08:39:31;;;;;;;;;;;;;;;;;;6296867;22;19951;-85
2023/02/04 08:42:00;;;;;;;;;;;;;;;;;;6275180;22;19904;-84
2023/02/04 08:55:14;;;;;;;;;;;;;;;;;;6327018;22;19903;-86
2023/02/04 08:58:03;;;;;;;;;;;;;;;;;;6279554;22;19919;-86
2023/02/04 09:06:07;;;;;;;;;;;;;;;;;;6301194;22;19903;-85
2023/02/04 09:08:33;;;;;;;;;;;;;;;;;;6281374;22;19902;-87
2023/02/04 09:13:41;;;;;;;;;;;;;;;;;;6304878;22;19907;-84
2023/02/04 09:16:09;;;;;;;;;;;;;;;;;;6270327;22;19923;-82
2023/02/04 09:18:39;;;;;;;;;;;;;;;;;;6238075;22;19919;-82
2023/02/04 09:21:05;;;;;;;;;;;;;;;;;;6290885;22;19910;-79
2023/02/04 09:23:43;;;;;;;;;;;;;;;;;;6313690;22;19931;-83
2023/02/04 09:26:13;;;;;;;;;;;;;;;;;;6280596;22;19929;-80
2023/02/04 09:28:39;;;;;;;;;;;;;;;;;;6259721;22;19923;-82
2023/02/04 09:31:08;;;;;;;;;;;;;;;;;;6286624;22;19945;-84
2023/02/04 09:33:36;;;;;;;;;;;;;;;;;;6312439;22;19895;-84
2023/02/04 09:36:14;;;;;;;;;;;;;;;;;;6300579;22;19910;-84
2023/02/04 09:49:34;;;;;;;;;;;;;;;;;;6291710;22;19963;-85
2023/02/04 09:52:08;;;;;;;;;;;;;;;;;;6232671;22;19902;-85
2023/02/04 10:00:18;;;;;;;;;;;;;;;;;;6299872;22;19903;-85
2023/02/04 10:02:58;;;;;;;;;;;;;;;;;;6282315;22;20692;-78
2023/02/04 10:05:27;;;;;;;;;;;;;;;;;;6280256;22;19923;-85
2023/02/04 10:08:00;;;;;;;;;;;;;;;;;;6256047;22;19912;-85
2023/02/04 10:10:32;;;;;;;;;;;;;;;;;;6227045;22;19919;-82
2023/02/04 10:15:41;;;;;;;;;;;;;;;;;;6322267;22;19903;-84
2023/02/04 10:18:07;;;;;;;;;;;;;;;;;;6294901;22;19919;-83
2023/02/04 10:20:38;;;;;;;;;;;;;;;;;;6256115;22;19896;-84
2023/02/04 10:23:09;;;;;;;;;;;;;;;;;;6249482;22;19904;-85
2023/02/04 10:25:36;;;;;;;;;;;;;;;;;;6225248;22;19911;-85
2023/02/04 10:28:08;;;;;;;;;;;;;;;;;;6241065;22;19949;-85
2023/02/04 10:30:40;;;;;;;;;;;;;;;;;;6254456;22;19919;-86
2023/02/04 10:33:11;;;;;;;;;;;;;;;;;;6254814;22;19900;-84
2023/02/04 10:35:40;;;;;;;;;;;;;;;;;;6251591;22;19911;-86
2023/02/04 10:38:06;;;;;;;;;;;;;;;;;;6251747;22;19915;-84
2023/02/04 10:40:58;;;;;;;;;;;;;;;;;;6242057;22;19958;-85
2023/02/04 10:43:38;;;;;;;;;;;;;;;;;;6285181;22;19902;-84
2023/02/04 10:46:04;;;;;;;;;;;;;;;;;;6285586;22;19895;-84
2023/02/04 10:56:38;;;;;;;;;;;;;;;;;;6286905;22;19919;-80
2023/02/04 10:59:11;;;;;;;;;;;;;;;;;;6244746;22;19923;-85
2023/02/04 11:04:36;;;;;;;;;;;;;;;;;;6308046;22;19903;-85
2023/02/04 11:07:02;;;;;;;;;;;;;;;;;;6286126;22;19903;-83
2023/02/04 11:09:33;;;;;;;;;;;;;;;;;;6254296;22;19942;-82
2023/02/04 11:17:51;;;;;;;;;;;;;;;;;;6294467;22;19935;-84
2023/02/04 11:20:19;;;;;;;;;;;;;;;;;;6252536;22;19902;-86
2023/02/04 11:22:52;;;;;;;;;;;;;;;;;;6305922;22;19919;-85
2023/02/04 11:25:20;;;;;;;;;;;;;;;;;;6291767;22;19919;-86
2023/02/04 11:27:52;;;;;;;;;;;;;;;;;;6284176;22;19915;-86
2023/02/04 11:30:20;;;;;;;;;;;;;;;;;;6334978;22;19963;-87
2023/02/04 11:32:49;;;;;;;;;;;;;;;;;;6256267;22;19917;-85
2023/02/04 11:35:20;;;;;;;;;;;;;;;;;;6249298;22;19914;-86
2023/02/04 11:37:48;;;;;;;;;;;;;;;;;;6249306;22;19930;-85
2023/02/04 11:40:16;;;;;;;;;;;;;;;;;;6274209;22;19939;-86
2023/02/04 11:42:49;;;;;;;;;;;;;;;;;;6250413;22;19907;-86
2023/02/04 11:45:15;;;;;;;;;;;;;;;;;;6302394;22;19923;-89
2023/02/04 11:47:40;;;;;;;;;;;;;;;;;;6253146;22;19895;-85
2023/02/04 11:50:06;;;;;;;;;;;;;;;;;;6254006;22;19922;-88
2023/02/04 11:52:31;;;;;;;;;;;;;;;;;;6254046;22;19896;-87
2023/02/04 11:54:59;;;;;;;;;;;;;;;;;;6253528;22;19938;-84
2023/02/04 11:57:25;;;;;;;;;;;;;;;;;;6253663;22;19939;-89
2023/02/04 11:59:53;;;;;;;;;;;;;;;;;;6279096;22;19911;-88
2023/02/04 12:02:18;;;;;;;;;;;;;;;;;;6235888;22;19903;-88
2023/02/04 12:04:44;;;;;;;;;;;;;;;;;;6283421;22;19917;-89
2023/02/04 12:15:22;;;;;;;;;;;;;;;;;;6297685;22;19908;-90
2023/02/04 12:20:32;;;;;;;;;;;;;;;;;;6299411;22;19958;-87
2023/02/04 12:28:14;;;;;;;;;;;;;;;;;;6292889;22;19904;-88
2023/02/04 12:30:40;;;;;;;;;;;;;;;;;;6253357;22;19926;-88
2023/02/04 12:33:07;;;;;;;;;;;;;;;;;;6249300;22;19962;-85
2023/02/04 12:40:59;;;;;;;;;;;;;;;;;;6302341;22;19919;-90
2023/02/04 12:43:25;;;;;;;;;;;;;;;;;;6278120;22;19908;-89
2023/02/04 12:45:51;;;;;;;;;;;;;;;;;;6238855;22;19911;-91
2023/02/04 12:48:19;;;;;;;;;;;;;;;;;;6202554;22;19941;-92
2023/02/04 12:50:44;;;;;;;;;;;;;;;;;;6201172;22;19911;-94
2023/02/04 12:53:12;;;;;;;;;;;;;;;;;;6201341;22;19910;-93
2023/02/04 12:55:40;;;;;;;;;;;;;;;;;;6250629;22;19907;-91
2023/02/04 12:58:09;;;;;;;;;;;;;;;;;;6231272;22;19950;-92
2023/02/04 13:00:44;;;;;;;;;;;;;;;;;;6204945;22;20036;-94
2023/02/04 13:03:09;;;;;;;;;;;;;;;;;;6225409;22;19930;-93
2023/02/04 13:05:37;;;;;;;;;;;;;;;;;;6225008;22;19903;-92
2023/02/04 13:08:03;;;;;;;;;;;;;;;;;;6201151;22;19918;-92
2023/02/04 13:10:28;;;;;;;;;;;;;;;;;;6224854;22;19907;-92
2023/02/04 13:12:59;;;;;;;;;;;;;;;;;;6224625;22;19911;-92
2023/02/04 13:15:24;;;;;;;;;;;;;;;;;;6249865;22;19908;-91
2023/02/04 13:17:50;;;;;;;;;;;;;;;;;;6250032;22;19991;-91
2023/02/04 13:20:15;;;;;;;;;;;;;;;;;;6199179;22;19934;-91
2023/02/04 13:22:41;;;;;;;;;;;;;;;;;;6223545;22;19907;-90
2023/02/04 13:25:08;;;;;;;;;;;;;;;;;;6196857;22;19934;-92
2023/02/04 13:27:33;;;;;;;;;;;;;;;;;;6198677;22;20298;-92
2023/02/04 13:29:59;;;;;;;;;;;;;;;;;;6250860;22;19955;-93
2023/02/04 13:32:24;;;;;;;;;;;;;;;;;;6201020;22;19907;-92
2023/02/04 13:34:50;;;;;;;;;;;;;;;;;;6224899;22;19908;-91
2023/02/04 13:37:15;;;;;;;;;;;;;;;;;;6225495;22;19907;-91
2023/02/04 13:39:41;;;;;;;;;;;;;;;;;;6226009;22;19937;-90
2023/02/04 13:42:14;;;;;;;;;;;;;;;;;;6225834;22;19907;-91
2023/02/04 13:44:39;;;;;;;;;;;;;;;;;;6227309;22;19918;-91
2023/02/04 13:47:05;;;;;;;;;;;;;;;;;;6200723;22;19903;-91
2023/02/04 13:49:33;;;;;;;;;;;;;;;;;;6225836;22;19915;-90
2023/02/04 13:52:07;;;;;;;;;;;;;;;;;;6226219;22;19957;-91
2023/02/04 13:54:49;;;;;;;;;;;;;;;;;;6205893;22;20252;-90
2023/02/04 13:57:16;;;;;;;;;;;;;;;;;;6251013;22;19907;-90
2023/02/04 13:59:41;;;;;;;;;;;;;;;;;;6201182;22;20387;-91
2023/02/04 14:02:07;;;;;;;;;;;;;;;;;;6226548;22;19930;-91
2023/02/04 14:04:32;;;;;;;;;;;;;;;;;;6201418;22;19908;-90
2023/02/04 14:06:58;;;;;;;;;;;;;;;;;;6226014;22;19907;-91
2023/02/04 14:09:24;;;;;;;;;;;;;;;;;;6199895;22;19993;-91
2023/02/04 14:11:50;;;;;;;;;;;;;;;;;;6200412;22;20029;-91
2023/02/04 14:14:16;;;;;;;;;;;;;;;;;;6200127;22;19907;-91
2023/02/04 14:16:43;;;;;;;;;;;;;;;;;;6200642;22;20325;-90
2023/02/04 14:19:09;;;;;;;;;;;;;;;;;;6200911;22;19942;-93
2023/02/04 14:21:34;;;;;;;;;;;;;;;;;;6251219;22;19946;-92
2023/02/04 14:24:00;;;;;;;;;;;;;;;;;;6225455;22;20377;-92
2023/02/04 14:26:25;;;;;;;;;;;;;;;;;;6200723;22;19930;-92
2023/02/04 14:28:51;;;;;;;;;;;;;;;;;;6251519;22;19964;-92
2023/02/04 14:31:16;;;;;;;;;;;;;;;;;;6201721;22;19907;-90
2023/02/04 14:33:42;;;;;;;;;;;;;;;;;;6201196;22;19915;-91
2023/02/04 14:36:07;;;;;;;;;;;;;;;;;;6200511;22;20248;-92
2023/02/04 14:38:33;;;;;;;;;;;;;;;;;;6226417;22;19961;-91
2023/02/04 14:40:58;;;;;;;;;;;;;;;;;;6251313;22;19918;-92
2023/02/04 14:43:24;;;;;;;;;;;;;;;;;;6227415;22;19926;-93
2023/02/04 14:45:49;;;;;;;;;;;;;;;;;;6228138;22;19926;-90
2023/02/04 14:48:14;;;;;;;;;;;;;;;;;;6231604;22;20238;-90
2023/02/04 14:50:40;;;;;;;;;;;;;;;;;;6235148;22;19911;-90
2023/02/04 14:53:05;;;;;;;;;;;;;;;;;;6229960;22;19907;-90
2023/02/04 14:55:31;;;;;;;;;;;;;;;;;;6226111;22;20340;-93
2023/02/04 14:57:59;;;;;;;;;;;;;;;;;;6201137;22;20245;-91
2023/02/04 15:00:25;;;;;;;;;;;;;;;;;;6227224;22;19922;-93
2023/02/04 15:02:50;;;;;;;;;;;;;;;;;;6200363;22;19908;-93
2023/02/04 15:05:15;;;;;;;;;;;;;;;;;;6224723;22;19931;-94
2023/02/04 15:07:41;;;;;;;;;;;;;;;;;;6200756;22;20221;-92
2023/02/04 15:10:06;;;;;;;;;;;;;;;;;;6225767;22;19912;-94
2023/02/04 15:12:32;;;;;;;;;;;;;;;;;;6201425;22;19907;-93
2023/02/04 15:14:57;;;;;;;;;;;;;;;;;;6276503;22;19994;-94
2023/02/04 15:17:23;;;;;;;;;;;;;;;;;;6200140;22;19946;-92
2023/02/04 15:19:48;;;;;;;;;;;;;;;;;;6200592;22;19907;-92
2023/02/04 15:22:14;;;;;;;;;;;;;;;;;;6200127;22;19911;-91
2023/02/04 15:24:40;;;;;;;;;;;;;;;;;;6225838;22;19945;-92
2023/02/04 15:27:05;;;;;;;;;;;;;;;;;;6201275;22;19911;-93
2023/02/04 15:29:31;;;;;;;;;;;;;;;;;;6202524;22;19998;-92
2023/02/04 15:31:56;;;;;;;;;;;;;;;;;;6205964;22;20230;-91
2023/02/04 15:34:22;;;;;;;;;;;;;;;;;;6205482;22;19933;-93
2023/02/04 15:36:47;;;;;;;;;;;;;;;;;;6205833;22;19915;-92
2023/02/04 15:39:13;;;;;;;;;;;;;;;;;;6202287;22;19911;-92
2023/02/04 15:41:38;;;;;;;;;;;;;;;;;;6229735;22;19907;-91
2023/02/04 15:44:04;;;;;;;;;;;;;;;;;;6205506;22;20344;-91
2023/02/04 15:46:30;;;;;;;;;;;;;;;;;;6202654;22;19907;-90
2023/02/04 15:48:55;;;;;;;;;;;;;;;;;;6204740;22;19914;-90
2023/02/04 15:51:20;;;;;;;;;;;;;;;;;;6207081;22;19947;-90
2023/02/04 15:53:46;;;;;;;;;;;;;;;;;;6214554;22;19923;-89
2023/02/04 15:56:11;;;;;;;;;;;;;;;;;;6224066;22;19986;-89
2023/02/04 15:58:37;;;;;;;;;;;;;;;;;;6227479;22;19915;-89
2023/02/04 16:01:06;;;;;;;;;;;;;;;;;;6227031;22;19907;-90
2023/02/04 16:03:31;;;;;;;;;;;;;;;;;;6226058;22;19915;-91
2023/02/04 16:05:57;;;;;;;;;;;;;;;;;;6250443;22;19915;-90
2023/02/04 16:08:26;;;;;;;;;;;;;;;;;;6253484;22;19912;-89
2023/02/04 16:13:41;;;;;;;;;;;;;;;;;;6304266;22;19903;-87
2023/02/04 16:16:09;;;;;;;;;;;;;;;;;;6253145;22;19955;-91
2023/02/04 16:18:34;;;;;;;;;;;;;;;;;;6226406;22;19915;-89
2023/02/04 16:26:31;;;;;;;;;;;;;;;;;;6299896;22;19919;-86
2023/02/04 16:40:05;;;;;;;;;;;;;;;;;;6291192;22;20015;-86
2023/02/04 16:51:16;;;;;;;;;;;;;;;;;;6297214;22;19925;-85
2023/02/04 16:53:42;;;;;;;;;;;;;;;;;;6276066;22;19915;-86
2023/02/04 16:56:08;;;;;;;;;;;;;;;;;;6225886;22;19907;-86
2023/02/04 16:58:35;;;;;;;;;;;;;;;;;;6226741;22;19892;-85
2023/02/04 17:01:03;;;;;;;;;;;;;;;;;;6226242;22;19905;-84
2023/02/04 17:03:47;;;;;;;;;;;;;;;;;;6228291;22;19918;-84
2023/02/04 17:06:15;;;;;;;;;;;;;;;;;;6250264;22;20249;-84
2023/02/04 17:08:43;;;;;;;;;;;;;;;;;;6226271;22;19913;-85
2023/02/04 17:11:30;;;;;;;;;;;;;;;;;;6227137;22;19911;-86
2023/02/04 17:14:10;;;;;;;;;;;;;;;;;;6225809;22;19914;-85
2023/02/04 17:19:53;;;;;;;;;;;;;;;;;;6305033;22;19920;-85
2023/02/04 17:22:30;;;;;;;;;;;;;;;;;;6257436;22;19911;-84
2023/02/04 17:24:58;;;;;;;;;;;;;;;;;;6304167;22;19907;-84
2023/02/04 17:27:23;;;;;;;;;;;;;;;;;;6305241;22;19914;-84
2023/02/04 17:29:49;;;;;;;;;;;;;;;;;;6304249;22;19912;-85
2023/02/04 17:32:17;;;;;;;;;;;;;;;;;;6279490;22;19899;-85
2023/02/04 17:37:25;;;;;;;;;;;;;;;;;;6295367;22;19904;-86
2023/02/04 17:40:01;;;;;;;;;;;;;;;;;;6280470;22;19911;-86
2023/02/04 17:42:32;;;;;;;;;;;;;;;;;;6281232;22;19919;-86
2023/02/04 17:55:49;;;;;;;;;;;;;;;;;;6273118;22;19942;-83
2023/02/04 17:58:42;;;;;;;;;;;;;;;;;;6232218;23;19903;-84
2023/02/04 18:01:20;;;;;;;;;;;;;;;;;;6202651;23;19892;-84
2023/02/04 18:03:50;;;;;;;;;;;;;;;;;;6221274;22;19916;-86
2023/02/04 18:06:50;;;;;;;;;;;;;;;;;;6285495;22;19942;-84
2023/02/04 18:09:33;;;;;;;;;;;;;;;;;;6256323;22;19907;-85
2023/02/04 18:12:12;;;;;;;;;;;;;;;;;;6258257;22;19911;-84
2023/02/04 18:14:45;;;;;;;;;;;;;;;;;;6276203;22;19957;-83
2023/02/04 18:17:16;;;;;;;;;;;;;;;;;;6252326;22;19902;-85
2023/02/04 18:19:51;;;;;;;;;;;;;;;;;;6226553;22;20035;-83
2023/02/04 18:33:14;;;;;;;;;;;;;;;;;;6285611;22;19903;-83
2023/02/04 18:38:33;;;;;;;;;;;;;;;;;;6285699;22;19950;-85
2023/02/04 18:40:59;;;;;;;;;;;;;;;;;;6255302;22;19899;-85
2023/02/04 18:46:20;;;;;;;;;;;;;;;;;;6240121;23;19918;-83
2023/02/04 18:49:02;;;;;;;;;;;;;;;;;;6229964;23;19903;-84
2023/02/04 18:54:21;;;;;;;;;;;;;;;;;;6305241;22;19903;-84
2023/02/04 18:56:47;;;;;;;;;;;;;;;;;;6237430;22;19923;-82
2023/02/04 18:59:18;;;;;;;;;;;;;;;;;;6299583;22;20823;-81
2023/02/04 19:01:44;;;;;;;;;;;;;;;;;;6279786;22;19899;-83
2023/02/04 19:04:16;;;;;;;;;;;;;;;;;;6281289;22;19896;-83
2023/02/04 19:07:00;;;;;;;;;;;;;;;;;;6282293;22;19903;-83
2023/02/04 19:09:32;;;;;;;;;;;;;;;;;;6305428;22;19910;-82
2023/02/04 19:14:45;;;;;;;;;;;;;;;;;;6292143;22;19919;-83
2023/02/04 19:17:17;;;;;;;;;;;;;;;;;;6280710;22;19911;-83
2023/02/04 19:22:27;;;;;;;;;;;;;;;;;;6304290;22;19903;-83
2023/02/04 19:25:04;;;;;;;;;;;;;;;;;;6300236;22;19903;-82
2023/02/04 19:30:17;;;;;;;;;;;;;;;;;;6311889;22;19923;-84
2023/02/04 20:09:34;;;;;;;;;;;;;;;;;;6290197;22;19955;-80
2023/02/04 20:42:20;;;;;;;;;;;;;;;;;;6260036;22;19915;-82
2023/02/04 20:47:33;;;;;;;;;;;;;;;;;;6258826;22;20850;-82
2023/02/04 21:17:47;;;;;;;;;;;;;;;;;;;;;
2023/02/04 21:20:40;;;;;;;;;;;;;;;;;;6250441;22;19923;-86
2023/02/04 21:37:15;;;;;;;;;;;;;;;;;;6322017;22;19902;-87
2023/02/04 21:40:02;;;;;;;;;;;;;;;;;;6262263;22;19939;-85
2023/02/04 21:50:50;;;;;;;;;;;;;;;;;;6302626;22;19919;-86
2023/02/04 21:56:23;;;;;;;;;;;;;;;;;;6295347;22;19919;-85
2023/02/04 22:04:32;;;;;;;;;;;;;;;;;;6287004;22;19962;-86
2023/02/04 22:10:14;;;;;;;;;;;;;;;;;;5547855;22;16735006;-84
2023/02/04 22:18:58;;;;;;;;;;;;;;;;;;6280955;22;19925;-87
2023/02/04 22:27:02;;;;;;;;;;;;;;;;;;6301888;22;19919;-86
2023/02/04 22:32:32;;;;;;;;;;;;;;;;;;6295858;22;19907;-84
2023/02/04 22:35:13;;;;;;;;;;;;;;;;;;6230458;22;19910;-85
2023/02/04 22:40:47;;;;;;;;;;;;;;;;;;6324685;22;19923;-81
2023/02/04 22:51:40;;;;;;;;;;;;;;;;;;6299391;22;19911;-85
2023/02/04 23:58:29;;;;;;;;;;;;;;;;;;6320521;22;19926;-82
